Time;durP1;ratioP1;P1;durP2;ratioP2;P2;SDS_P1;SDS_P2;PMS_P1;PMS_P2;Temp;Humidity;BMP_temperature;BMP_pressure;BME280_temperature;BME280_humidity;BME280_pressure;Samples;Min_cycle;Max_cycle;Signal;HPM_P1;HPM_P2
2023/10/02 00:00:42;;;;;;;33.83;10.93;;;;;11.50;97136.00;;;;8465492;27;20195;-64
2023/10/02 00:04:45;;;;;;;30.80;9.40;;;;;11.40;97135.00;;;;8467990;27;20283;-64
2023/10/02 00:08:51;;;;;;;27.13;9.82;;;;;11.30;97124.00;;;;8476513;27;20711;-63
2023/10/02 00:12:59;;;;;;;30.02;10.98;;;;;11.20;97124.00;;;;8457750;27;20249;-64
2023/10/02 00:17:07;;;;;;;32.15;11.27;;;;;11.20;97123.00;;;;8481574;27;20217;-64
2023/10/02 00:21:18;;;;;;;32.72;11.55;;;;;11.20;97123.00;;;;8478016;27;20726;-64
2023/10/02 00:25:22;;;;;;;34.28;12.25;;;;;11.30;97114.00;;;;8471715;27;20236;-64
2023/10/02 00:29:28;;;;;;;41.70;13.77;;;;;11.40;97109.00;;;;8474367;27;20237;-64
2023/10/02 00:33:32;;;;;;;31.48;11.20;;;;;11.30;97111.00;;;;8467502;27;20642;-63
2023/10/02 00:37:44;;;;;;;32.53;11.82;;;;;11.30;97115.00;;;;8463523;27;20195;-63
2023/10/02 00:46:23;;;;;;;36.20;11.77;;;;;11.30;97103.00;;;;8472453;27;20225;-64
2023/10/02 00:50:27;;;;;;;40.10;13.55;;;;;11.20;97097.00;;;;8474313;27;20203;-62
2023/10/02 00:54:31;;;;;;;28.27;10.63;;;;;11.10;97107.00;;;;8471224;27;20329;-62
2023/10/02 00:58:34;;;;;;;39.22;11.48;;;;;11.10;97100.00;;;;8471408;27;20250;-63
2023/10/02 01:02:40;;;;;;;28.67;9.95;;;;;11.00;97101.00;;;;8464150;27;20222;-63
2023/10/02 01:07:05;;;;;;;33.10;11.93;;;;;10.90;97100.00;;;;8470996;27;20551;-63
2023/10/02 01:11:11;;;;;;;28.77;10.40;;;;;10.80;97103.00;;;;8471695;27;20194;-64
2023/10/02 01:15:14;;;;;;;30.65;11.30;;;;;10.80;97103.00;;;;8477710;27;20206;-63
2023/10/02 01:19:24;;;;;;;32.22;10.82;;;;;10.70;97097.00;;;;8478634;27;20293;-63
2023/10/02 01:23:28;;;;;;;26.98;10.80;;;;;10.70;97092.00;;;;8478005;27;20838;-63
2023/10/02 01:27:40;;;;;;;31.80;11.07;;;;;10.70;97089.00;;;;8471105;27;20212;-65
2023/10/02 01:31:44;;;;;;;32.08;10.70;;;;;10.60;97087.00;;;;8466612;27;20218;-63
2023/10/02 01:35:49;;;;;;;34.60;11.43;;;;;10.60;97083.00;;;;8480755;27;20235;-63
2023/10/02 01:40:28;;;;;;;31.70;11.90;;;;;10.60;97079.00;;;;8453954;27;20198;-64
2023/10/02 01:44:20;;;;;;;41.85;11.77;;;;;10.50;97088.00;;;;8480147;27;20279;-63
2023/10/02 01:48:39;;;;;;;31.48;10.63;;;;;10.50;97085.00;;;;8466177;27;20549;-64
2023/10/02 01:52:45;;;;;;;33.88;11.07;;;;;10.50;97083.00;;;;8466635;27;20201;-63
2023/10/02 01:56:55;;;;;;;40.88;12.98;;;;;10.50;97077.00;;;;8481473;27;20205;-64
2023/10/02 02:01:00;;;;;;;32.65;10.75;;;;;10.50;97084.00;;;;8469996;27;20299;-63
2023/10/02 02:05:04;;;;;;;35.90;12.00;;;;;10.40;97083.00;;;;8466304;27;20246;-63
2023/10/02 02:09:18;;;;;;;45.20;12.07;;;;;10.40;97080.00;;;;8476343;27;20294;-63
2023/10/02 02:13:22;;;;;;;37.83;11.20;;;;;10.40;97067.00;;;;8465890;27;20198;-63
2023/10/02 02:17:28;;;;;;;31.27;10.75;;;;;10.30;97070.00;;;;8472111;27;20642;-63
2023/10/02 02:21:32;;;;;;;34.00;12.00;;;;;10.20;97070.00;;;;8471271;28;20207;-63
2023/10/02 02:25:35;;;;;;;37.00;12.20;;;;;10.20;97076.00;;;;8475651;28;20967;-63
2023/10/02 02:29:38;;;;;;;38.42;12.43;;;;;10.20;97078.00;;;;8464705;27;20916;-64
2023/10/02 02:33:43;;;;;;;48.88;14.25;;;;;10.20;97072.00;;;;8469109;28;20298;-64
2023/10/02 02:37:46;;;;;;;30.48;11.02;;;;;10.10;97072.00;;;;8467903;28;20282;-64
2023/10/02 02:42:08;;;;;;;33.08;10.93;;;;;10.10;97075.00;;;;8471970;28;20216;-64
2023/10/02 02:46:17;;;;;;;39.57;12.53;;;;;10.00;97076.00;;;;8464870;28;20223;-64
2023/10/02 02:50:27;;;;;;;30.30;10.63;;;;;10.00;97076.00;;;;8475858;28;20224;-64
2023/10/02 02:54:31;;;;;;;34.42;10.82;;;;;9.90;97078.00;;;;8463894;27;20580;-64
2023/10/02 02:58:35;;;;;;;25.08;10.27;;;;;9.90;97075.00;;;;8476299;28;20291;-64
2023/10/02 03:02:39;;;;;;;32.83;10.98;;;;;10.00;97080.00;;;;8479155;22;20238;-64
2023/10/02 03:06:44;;;;;;;34.28;11.85;;;;;9.90;97071.00;;;;8447629;28;20726;-64
2023/10/02 03:10:47;;;;;;;32.47;11.32;;;;;9.90;97075.00;;;;8442990;28;20198;-64
2023/10/02 03:14:54;;;;;;;29.63;9.90;;;;;9.80;97077.00;;;;8450145;27;20224;-64
2023/10/02 03:18:57;;;;;;;28.75;10.30;;;;;9.80;97075.00;;;;8445460;28;20223;-64
2023/10/02 03:23:11;;;;;;;28.95;10.18;;;;;9.80;97075.00;;;;8448686;27;20619;-64
2023/10/02 03:27:14;;;;;;;31.58;11.35;;;;;9.70;97078.00;;;;8441843;28;20252;-63
2023/10/02 03:31:34;;;;;;;32.53;10.52;;;;;9.70;97081.00;;;;8450102;28;20602;-63
2023/10/02 03:35:39;;;;;;;36.40;11.25;;;;;9.60;97077.00;;;;8441022;28;20204;-63
2023/10/02 03:40:13;;;;;;;29.52;11.18;;;;;9.60;97073.00;;;;8437431;28;20324;-62
2023/10/02 03:44:17;;;;;;;28.90;11.00;;;;;9.60;97069.00;;;;8444529;28;20305;-64
2023/10/02 03:48:20;;;;;;;29.85;10.60;;;;;9.60;97075.00;;;;8447527;28;20291;-63
2023/10/02 03:52:23;;;;;;;27.80;10.35;;;;;9.70;97070.00;;;;8441928;28;20295;-63
2023/10/02 03:56:42;;;;;;;31.02;10.70;;;;;9.70;97060.00;;;;8438198;28;20672;-63
2023/10/02 04:00:50;;;;;;;27.85;10.38;;;;;9.60;97070.00;;;;8435486;28;20207;-63
2023/10/02 04:04:55;;;;;;;33.10;10.37;;;;;9.60;97058.00;;;;8404213;28;20257;-63
2023/10/02 04:09:08;;;;;;;27.90;9.60;;;;;9.60;97068.00;;;;8411848;28;20283;-62
2023/10/02 04:13:14;;;;;;;34.40;11.25;;;;;9.50;97068.00;;;;8407929;28;20231;-63
2023/10/02 04:17:21;;;;;;;29.50;11.35;;;;;9.50;97068.00;;;;8401984;28;20202;-63
2023/10/02 04:21:25;;;;;;;29.75;10.38;;;;;9.50;97071.00;;;;8410588;28;20238;-63
2023/10/02 04:25:35;;;;;;;23.67;9.07;;;;;9.50;97065.00;;;;8395447;28;20329;-63
2023/10/02 04:29:39;;;;;;;36.55;12.23;;;;;9.60;97067.00;;;;8386892;28;20200;-63
2023/10/02 04:33:52;;;;;;;50.75;16.50;;;;;9.70;97066.00;;;;8388289;28;20606;-63
2023/10/02 04:37:58;;;;;;;52.97;15.77;;;;;9.80;97063.00;;;;8397805;28;20306;-63
2023/10/02 04:42:15;;;;;;;68.97;19.50;;;;;9.80;97066.00;;;;8399945;28;20236;-63
2023/10/02 04:46:20;;;;;;;42.37;14.00;;;;;9.80;97067.00;;;;8403246;28;20219;-63
2023/10/02 04:50:35;;;;;;;33.72;11.10;;;;;9.70;97067.00;;;;8401549;28;20287;-63
2023/10/02 04:54:38;;;;;;;36.28;11.38;;;;;9.60;97068.00;;;;8396897;28;20201;-63
2023/10/02 04:58:47;;;;;;;34.25;11.35;;;;;9.50;97076.00;;;;8396142;28;20702;-63
2023/10/02 05:03:09;;;;;;;30.60;11.30;;;;;9.40;97066.00;;;;8400855;28;20258;-63
2023/10/02 05:07:15;;;;;;;34.38;12.05;;;;;9.30;97068.00;;;;8402817;28;20261;-63
2023/10/02 05:11:26;;;;;;;39.17;10.67;;;;;9.20;97072.00;;;;8393311;28;20229;-63
2023/10/02 05:15:31;;;;;;;36.08;11.40;;;;;9.00;97079.00;;;;8402186;28;20201;-63
2023/10/02 05:19:56;;;;;;;29.23;10.43;;;;;9.00;97078.00;;;;8391529;28;20206;-63
2023/10/02 05:24:01;;;;;;;34.33;11.10;;;;;9.00;97083.00;;;;8394197;28;20192;-63
2023/10/02 05:28:05;;;;;;;35.92;12.45;;;;;9.00;97085.00;;;;8394015;28;20200;-63
2023/10/02 05:32:19;;;;;;;41.20;12.52;;;;;9.20;97082.00;;;;8396742;28;20222;-63
2023/10/02 05:36:28;;;;;;;32.07;11.30;;;;;9.30;97085.00;;;;8393420;28;20267;-63
2023/10/02 05:40:38;;;;;;;35.63;12.20;;;;;9.40;97071.00;;;;8395559;28;20199;-64
2023/10/02 05:44:42;;;;;;;50.30;14.68;;;;;9.60;97081.00;;;;8391736;28;20237;-65
2023/10/02 05:49:00;;;;;;;45.10;12.48;;;;;9.70;97084.00;;;;8399504;28;20235;-65
2023/10/02 05:53:06;;;;;;;38.65;12.73;;;;;9.70;97087.00;;;;8392628;28;20196;-62
2023/10/02 05:57:13;;;;;;;43.33;13.87;;;;;9.90;97083.00;;;;8391944;28;20195;-63
2023/10/02 06:01:26;;;;;;;49.30;15.40;;;;;10.00;97088.00;;;;8389241;28;20234;-64
2023/10/02 06:05:31;;;;;;;59.42;14.90;;;;;10.10;97096.00;;;;8399972;28;20224;-65
2023/10/02 06:09:43;;;;;;;45.67;14.77;;;;;10.10;97099.00;;;;8401879;28;20580;-65
2023/10/02 06:13:50;;;;;;;52.28;16.23;;;;;10.30;97102.00;;;;8393012;28;20205;-64
2023/10/02 06:17:53;;;;;;;48.70;15.65;;;;;10.40;97101.00;;;;8401276;28;20195;-66
2023/10/02 06:22:06;;;;;;;50.97;15.65;;;;;10.60;97099.00;;;;8392952;28;20246;-62
2023/10/02 06:26:10;;;;;;;64.93;18.27;;;;;10.70;97104.00;;;;8394266;28;20652;-62
2023/10/02 06:30:16;;;;;;;63.72;17.60;;;;;10.80;97096.00;;;;8389115;28;20193;-62
2023/10/02 06:34:19;;;;;;;60.63;17.40;;;;;11.00;97105.00;;;;8396042;28;20793;-62
2023/10/02 06:38:22;;;;;;;58.25;17.73;;;;;11.10;97110.00;;;;8405552;28;20564;-61
2023/10/02 06:42:28;;;;;;;52.70;15.57;;;;;11.20;97103.00;;;;8398929;28;20205;-64
2023/10/02 06:46:31;;;;;;;52.42;15.85;;;;;11.40;97110.00;;;;8400875;28;20236;-64
2023/10/02 06:50:36;;;;;;;47.17;15.75;;;;;11.50;97108.00;;;;8404432;28;20225;-64
2023/10/02 06:54:42;;;;;;;52.05;16.10;;;;;11.60;97112.00;;;;8403429;28;20978;-64
2023/10/02 06:58:52;;;;;;;45.10;16.48;;;;;11.90;97127.00;;;;8403628;28;20718;-63
2023/10/02 07:02:57;;;;;;;46.03;15.93;;;;;12.00;97124.00;;;;8401223;28;20219;-64
2023/10/02 07:07:04;;;;;;;38.17;15.48;;;;;12.30;97127.00;;;;8403396;28;20294;-64
2023/10/02 07:11:11;;;;;;;44.78;16.40;;;;;12.60;97139.00;;;;8385362;28;20318;-64
2023/10/02 07:15:22;;;;;;;50.33;17.52;;;;;12.90;97131.00;;;;8400325;28;20312;-64
2023/10/02 07:19:38;;;;;;;49.30;16.70;;;;;13.20;97144.00;;;;8407468;28;20584;-65
2023/10/02 07:23:44;;;;;;;41.00;16.25;;;;;13.60;97137.00;;;;8407645;28;20202;-65
2023/10/02 07:27:48;;;;;;;45.33;15.05;;;;;14.10;97138.00;;;;8406780;28;20574;-65
2023/10/02 07:31:53;;;;;;;41.67;15.15;;;;;14.50;97142.00;;;;8407614;28;20269;-65
2023/10/02 07:35:57;;;;;;;36.63;13.85;;;;;14.70;97138.00;;;;8402879;28;20199;-64
2023/10/02 07:40:01;;;;;;;36.60;14.07;;;;;14.90;97143.00;;;;8403944;28;20888;-65
2023/10/02 07:44:08;;;;;;;42.08;15.32;;;;;15.10;97142.00;;;;8400601;28;20205;-65
2023/10/02 07:48:16;;;;;;;31.83;12.60;;;;;15.20;97151.00;;;;8408548;28;20310;-65
2023/10/02 07:52:35;;;;;;;32.33;12.98;;;;;15.40;97144.00;;;;8405955;28;20253;-65
2023/10/02 07:56:41;;;;;;;33.30;13.60;;;;;15.60;97135.00;;;;8402605;28;20196;-65
2023/10/02 08:00:49;;;;;;;31.80;14.10;;;;;15.80;97136.00;;;;8409485;28;20196;-65
2023/10/02 08:04:59;;;;;;;36.42;13.13;;;;;15.90;97142.00;;;;8413932;28;20218;-64
2023/10/02 08:13:33;;;;;;;29.15;13.73;;;;;16.50;97139.00;;;;8398874;28;20588;-65
2023/10/02 08:21:55;;;;;;;29.02;13.05;;;;;17.10;97132.00;;;;8406810;28;20187;-65
2023/10/02 08:26:05;;;;;;;28.60;12.20;;;;;17.40;97136.00;;;;8401975;28;20569;-65
2023/10/02 08:34:41;;;;;;;29.17;12.82;;;;;18.00;97129.00;;;;8435350;27;20568;-65
2023/10/02 08:38:49;;;;;;;23.05;10.63;;;;;18.40;97137.00;;;;8431286;28;20204;-63
2023/10/02 08:42:57;;;;;;;23.67;10.52;;;;;18.70;97129.00;;;;8435916;28;20199;-64
2023/10/02 08:47:00;;;;;;;30.48;11.77;;;;;19.00;97135.00;;;;8433598;28;20205;-63
2023/10/02 08:51:05;;;;;;;26.08;10.88;;;;;19.30;97127.00;;;;8435198;28;20247;-64
2023/10/02 08:55:33;;;;;;;27.00;11.20;;;;;19.60;97133.00;;;;8435873;28;20187;-65
2023/10/02 08:59:40;;;;;;;26.65;11.40;;;;;20.00;97130.00;;;;8435982;28;20202;-64
2023/10/02 09:04:21;;;;;;;26.60;11.45;;;;;20.40;97133.00;;;;8409923;28;20246;-64
2023/10/02 09:08:16;;;;;;;29.85;11.70;;;;;20.70;97127.00;;;;8402069;28;20524;-65
2023/10/02 09:12:20;;;;;;;26.75;10.75;;;;;21.20;97129.00;;;;8400353;28;20314;-65
2023/10/02 09:16:29;;;;;;;26.98;11.43;;;;;21.70;97123.00;;;;8397901;28;20203;-65
2023/10/02 09:20:53;;;;;;;25.48;11.13;;;;;22.30;97126.00;;;;8403796;28;20262;-65
2023/10/02 09:25:09;;;;;;;27.65;11.35;;;;;22.60;97121.00;;;;8403250;28;20195;-65
2023/10/02 09:29:16;;;;;;;24.05;10.00;;;;;23.00;97123.00;;;;8388428;28;20250;-65
2023/10/02 09:33:22;;;;;;;24.77;10.57;;;;;23.30;97127.00;;;;8400290;28;20226;-65
2023/10/02 09:37:46;;;;;;;27.15;10.55;;;;;23.60;97120.00;;;;8400874;28;20253;-65
2023/10/02 09:42:10;;;;;;;27.65;10.45;;;;;23.90;97114.00;;;;8402643;28;20876;-65
2023/10/02 09:46:16;;;;;;;27.45;11.10;;;;;24.30;97107.00;;;;8372828;28;20196;-65
2023/10/02 09:50:25;;;;;;;27.85;11.00;;;;;25.00;97098.00;;;;8379776;28;20200;-65
2023/10/02 09:54:36;;;;;;;30.23;11.35;;;;;25.60;97110.00;;;;8377151;28;20301;-65
2023/10/02 09:58:52;;;;;;;26.63;11.02;;;;;26.20;97108.00;;;;8380633;28;20204;-65
2023/10/02 10:03:31;;;;;;;27.13;11.23;;;;;26.60;97102.00;;;;8375219;28;20251;-66
2023/10/02 10:08:18;;;;;;;28.77;11.93;;;;;26.90;97097.00;;;;8376879;28;20196;-66
2023/10/02 10:16:54;;;;;;;27.65;11.73;;;;;27.20;97103.00;;;;8366222;28;20854;-66
2023/10/02 10:21:57;;;;;;;32.13;12.02;;;;;27.00;97096.00;;;;8374788;28;20198;-66
2023/10/02 10:26:07;;;;;;;29.95;12.07;;;;;27.00;97095.00;;;;8366943;28;20200;-66
2023/10/02 10:30:38;;;;;;;31.20;11.75;;;;;26.80;97086.00;;;;8369418;28;20231;-64
2023/10/02 10:35:14;;;;;;;30.80;11.90;;;;;26.90;97082.00;;;;8352107;28;20406;-66
2023/10/02 10:39:52;;;;;;;26.10;11.50;;;;;26.70;97074.00;;;;8375052;28;20226;-65
2023/10/02 10:43:59;;;;;;;26.90;11.60;;;;;26.60;97073.00;;;;8375304;28;20201;-66
2023/10/02 10:48:03;;;;;;;25.15;10.70;;;;;26.60;97080.00;;;;8385719;28;20203;-66
2023/10/02 10:52:24;;;;;;;26.15;11.18;;;;;26.50;97069.00;;;;8379694;28;20228;-66
2023/10/02 10:56:27;;;;;;;25.48;10.35;;;;;26.60;97074.00;;;;8377321;28;20681;-68
2023/10/02 11:00:35;;;;;;;22.80;10.80;;;;;26.60;97069.00;;;;8378556;28;20231;-68
2023/10/02 11:04:39;;;;;;;22.65;10.35;;;;;26.70;97067.00;;;;8375664;28;20306;-68
2023/10/02 11:09:11;;;;;;;24.98;11.25;;;;;26.70;97063.00;;;;8384389;28;20196;-68
2023/10/02 11:13:26;;;;;;;27.55;11.07;;;;;26.90;97056.00;;;;8378153;28;20234;-68
2023/10/02 11:17:32;;;;;;;24.25;10.27;;;;;27.00;97056.00;;;;8375270;28;20881;-68
2023/10/02 11:21:44;;;;;;;22.63;10.25;;;;;27.20;97059.00;;;;8375842;28;20267;-68
2023/10/02 11:25:56;;;;;;;22.55;10.05;;;;;27.10;97048.00;;;;8377901;28;20257;-66
2023/10/02 11:30:09;;;;;;;24.08;10.48;;;;;27.10;97042.00;;;;8364077;28;20239;-66
2023/10/02 11:34:12;;;;;;;24.70;11.20;;;;;27.00;97041.00;;;;8376109;28;20231;-66
2023/10/02 11:38:24;;;;;;;27.70;11.20;;;;;27.00;97039.00;;;;8378558;28;20257;-66
2023/10/02 11:42:28;;;;;;;23.83;10.48;;;;;27.00;97030.00;;;;8373351;28;20285;-66
2023/10/02 11:46:31;;;;;;;25.33;10.82;;;;;26.90;97025.00;;;;8368253;28;20194;-66
2023/10/02 11:50:35;;;;;;;22.25;10.05;;;;;26.80;97021.00;;;;8371949;28;20204;-66
2023/10/02 11:54:39;;;;;;;20.85;10.10;;;;;26.80;97023.00;;;;8367846;28;20267;-66
2023/10/02 11:58:44;;;;;;;26.30;10.55;;;;;26.70;97023.00;;;;8373353;28;20617;-66
2023/10/02 12:02:47;;;;;;;27.85;10.50;;;;;26.70;97015.00;;;;8374725;28;20315;-66
2023/10/02 12:06:52;;;;;;;24.52;10.35;;;;;26.80;97020.00;;;;8374026;28;20196;-66
2023/10/02 12:10:56;;;;;;;24.25;10.02;;;;;26.70;97011.00;;;;8374443;28;20219;-67
2023/10/02 12:15:00;;;;;;;28.27;11.35;;;;;26.70;97014.00;;;;8370191;28;20239;-67
2023/10/02 12:19:03;;;;;;;26.08;11.05;;;;;26.70;97009.00;;;;8372587;28;20279;-67
2023/10/02 12:23:06;;;;;;;26.13;10.50;;;;;26.70;97002.00;;;;8371930;28;20294;-66
2023/10/02 12:27:11;;;;;;;27.25;10.88;;;;;26.80;96999.00;;;;8370247;28;20696;-66
2023/10/02 12:31:19;;;;;;;23.42;9.48;;;;;26.80;96993.00;;;;8372937;28;20234;-66
2023/10/02 12:35:22;;;;;;;24.90;10.35;;;;;26.90;96990.00;;;;8365698;28;20224;-66
2023/10/02 12:39:28;;;;;;;25.17;10.32;;;;;26.90;96984.00;;;;8372397;28;20196;-66
2023/10/02 12:43:32;;;;;;;22.15;10.00;;;;;27.00;96979.00;;;;8368613;28;20191;-66
2023/10/02 12:47:38;;;;;;;23.58;10.68;;;;;27.00;96974.00;;;;8371800;28;20202;-65
2023/10/02 12:51:43;;;;;;;23.45;10.23;;;;;26.90;96970.00;;;;8382846;28;20191;-66
2023/10/02 12:55:47;;;;;;;25.08;10.60;;;;;26.90;96970.00;;;;8376505;28;20588;-65
2023/10/02 12:59:50;;;;;;;32.67;10.75;;;;;27.00;96970.00;;;;8374025;28;20717;-65
2023/10/02 13:03:55;;;;;;;24.85;10.85;;;;;27.10;96965.00;;;;8375575;28;20219;-65
2023/10/02 13:07:58;;;;;;;24.48;10.70;;;;;27.20;96963.00;;;;8378134;28;20265;-67
2023/10/02 13:12:02;;;;;;;29.10;10.80;;;;;27.20;96972.00;;;;8376269;28;20672;-67
2023/10/02 13:16:09;;;;;;;25.42;10.70;;;;;27.30;96955.00;;;;8365050;28;20749;-67
2023/10/02 13:20:13;;;;;;;29.42;11.30;;;;;27.40;96953.00;;;;8380806;28;20208;-67
2023/10/02 13:24:17;;;;;;;24.90;11.55;;;;;27.50;96952.00;;;;8383068;28;20258;-67
2023/10/02 13:28:21;;;;;;;26.67;11.25;;;;;27.60;96949.00;;;;8381382;28;20366;-67
2023/10/02 13:32:24;;;;;;;23.48;10.88;;;;;27.60;96937.00;;;;8386547;28;20742;-67
2023/10/02 13:36:29;;;;;;;26.83;10.90;;;;;27.60;96932.00;;;;8387438;28;20192;-67
2023/10/02 13:40:32;;;;;;;24.63;11.32;;;;;27.60;96917.00;;;;8386090;28;20298;-67
2023/10/02 13:44:35;;;;;;;24.40;11.27;;;;;27.70;96920.00;;;;8386471;28;20257;-68
2023/10/02 13:48:39;;;;;;;26.05;11.20;;;;;27.80;96919.00;;;;8380548;28;20311;-68
2023/10/02 13:52:44;;;;;;;27.63;11.68;;;;;27.80;96915.00;;;;8385727;28;20867;-70
2023/10/02 13:56:47;;;;;;;26.15;10.70;;;;;27.90;96912.00;;;;8381748;28;20919;-68
2023/10/02 14:00:50;;;;;;;22.52;10.55;;;;;28.00;96907.00;;;;8378286;28;20235;-68
2023/10/02 14:04:53;;;;;;;25.13;11.10;;;;;28.10;96913.00;;;;8384789;28;20250;-68
2023/10/02 14:08:59;;;;;;;26.05;11.60;;;;;28.20;96899.00;;;;8378198;28;20300;-69
2023/10/02 14:13:03;;;;;;;28.63;11.82;;;;;28.40;96898.00;;;;8378053;28;20509;-68
2023/10/02 14:17:06;;;;;;;28.70;11.93;;;;;28.50;96897.00;;;;8381399;28;20204;-67
2023/10/02 14:21:10;;;;;;;29.13;11.70;;;;;28.60;96896.00;;;;8374506;28;20205;-68
2023/10/02 14:25:33;;;;;;;25.23;11.38;;;;;28.60;96894.00;;;;8387696;28;20196;-67
2023/10/02 14:29:37;;;;;;;24.15;11.05;;;;;28.70;96891.00;;;;8377818;28;20740;-69
2023/10/02 14:33:43;;;;;;;29.25;11.50;;;;;28.70;96887.00;;;;8381973;28;20223;-69
2023/10/02 14:37:48;;;;;;;24.58;11.02;;;;;28.70;96891.00;;;;8378574;28;20290;-68
2023/10/02 14:41:53;;;;;;;26.88;11.85;;;;;28.60;96875.00;;;;8378253;28;20204;-68
2023/10/02 14:45:57;;;;;;;27.73;12.18;;;;;28.60;96878.00;;;;8368552;28;20234;-68
2023/10/02 14:50:01;;;;;;;26.83;12.55;;;;;28.60;96872.00;;;;8374608;28;20262;-69
2023/10/02 14:54:05;;;;;;;25.15;11.55;;;;;28.70;96874.00;;;;8374843;28;20234;-69
2023/10/02 14:58:10;;;;;;;30.17;13.15;;;;;28.70;96876.00;;;;8372933;28;20226;-68
2023/10/02 15:02:13;;;;;;;26.58;11.55;;;;;28.70;96877.00;;;;8370905;28;20247;-68
2023/10/02 15:06:16;;;;;;;29.00;12.18;;;;;28.60;96875.00;;;;8375499;28;20189;-69
2023/10/02 15:10:23;;;;;;;25.90;11.45;;;;;28.40;96875.00;;;;8370249;28;20701;-69
2023/10/02 15:14:28;;;;;;;30.05;12.65;;;;;28.30;96878.00;;;;8375155;28;20755;-69
2023/10/02 15:18:33;;;;;;;27.35;12.40;;;;;28.00;96880.00;;;;8368603;28;20275;-68
2023/10/02 15:22:36;;;;;;;29.15;12.10;;;;;27.90;96873.00;;;;8377750;28;20295;-69
2023/10/02 15:26:45;;;;;;;26.67;11.35;;;;;27.70;96877.00;;;;8373349;28;20196;-68
2023/10/02 15:30:49;;;;;;;30.15;11.70;;;;;27.50;96878.00;;;;8377475;28;20227;-68
2023/10/02 15:34:52;;;;;;;27.77;12.05;;;;;27.30;96875.00;;;;8377864;28;20234;-69
2023/10/02 15:38:57;;;;;;;26.20;11.32;;;;;27.20;96879.00;;;;8379732;28;20367;-69
2023/10/02 15:43:01;;;;;;;28.77;12.40;;;;;27.10;96874.00;;;;8378862;28;20759;-68
2023/10/02 15:47:07;;;;;;;26.60;11.65;;;;;26.90;96863.00;;;;8376551;28;20258;-68
2023/10/02 15:51:14;;;;;;;31.55;11.70;;;;;26.70;96861.00;;;;8391178;28;20289;-68
2023/10/02 15:55:19;;;;;;;26.40;11.40;;;;;26.50;96860.00;;;;8375401;28;20273;-68
2023/10/02 15:59:22;;;;;;;28.73;12.00;;;;;26.30;96870.00;;;;8378311;28;20989;-68
2023/10/02 16:03:27;;;;;;;31.90;11.70;;;;;26.10;96862.00;;;;8374228;28;20216;-68
2023/10/02 16:07:30;;;;;;;29.00;11.15;;;;;25.90;96865.00;;;;8376752;28;20195;-68
2023/10/02 16:11:34;;;;;;;34.42;10.73;;;;;25.60;96861.00;;;;8370295;28;20637;-67
2023/10/02 16:15:38;;;;;;;29.77;10.57;;;;;25.30;96858.00;;;;8370046;28;20220;-68
2023/10/02 16:19:43;;;;;;;25.58;10.48;;;;;25.10;96849.00;;;;8370360;28;20555;-68
2023/10/02 16:23:46;;;;;;;26.85;10.85;;;;;24.90;96849.00;;;;8376574;28;20195;-68
2023/10/02 16:27:50;;;;;;;26.27;11.10;;;;;24.60;96847.00;;;;8380274;28;20193;-68
2023/10/02 16:31:54;;;;;;;22.92;10.45;;;;;24.40;96851.00;;;;8384861;28;20204;-67
2023/10/02 16:35:59;;;;;;;26.77;11.23;;;;;24.10;96845.00;;;;8377534;28;20231;-68
2023/10/02 16:40:02;;;;;;;46.25;26.17;;;;;23.90;96850.00;;;;8384734;28;20629;-68
2023/10/02 16:44:08;;;;;;;30.52;15.02;;;;;23.60;96851.00;;;;8374014;28;20204;-67
2023/10/02 16:48:12;;;;;;;24.65;10.70;;;;;23.40;96845.00;;;;8376724;28;20314;-67
2023/10/02 16:52:18;;;;;;;24.52;10.35;;;;;23.10;96849.00;;;;8387090;28;20191;-67
2023/10/02 16:56:23;;;;;;;23.55;9.68;;;;;22.80;96850.00;;;;8387008;28;20219;-68
2023/10/02 17:00:27;;;;;;;22.80;10.02;;;;;22.40;96852.00;;;;8380783;28;20258;-68
2023/10/02 17:04:31;;;;;;;28.67;10.82;;;;;22.00;96859.00;;;;8385614;28;20222;-68
2023/10/02 17:08:36;;;;;;;24.73;9.90;;;;;21.70;96854.00;;;;8376904;28;20557;-68
2023/10/02 17:12:40;;;;;;;25.63;9.65;;;;;21.30;96847.00;;;;8391386;28;20226;-68
2023/10/02 17:16:43;;;;;;;23.80;10.15;;;;;21.00;96849.00;;;;8378099;28;20274;-68
2023/10/02 17:20:47;;;;;;;30.55;11.48;;;;;20.50;96851.00;;;;8378732;28;20695;-68
2023/10/02 17:24:52;;;;;;;22.77;9.65;;;;;20.10;96843.00;;;;8385759;28;20204;-68
2023/10/02 17:28:56;;;;;;;27.85;10.38;;;;;19.80;96850.00;;;;8383731;28;20200;-67
2023/10/02 17:33:01;;;;;;;23.00;9.90;;;;;19.50;96848.00;;;;8370422;28;20265;-68
2023/10/02 17:37:05;;;;;;;28.10;11.05;;;;;19.10;96840.00;;;;8386883;28;20231;-68
2023/10/02 17:41:09;;;;;;;25.60;10.45;;;;;19.00;96839.00;;;;8377318;28;20224;-67
2023/10/02 17:45:14;;;;;;;27.55;10.25;;;;;18.70;96840.00;;;;8377879;28;20199;-67
2023/10/02 17:49:17;;;;;;;30.02;11.43;;;;;18.60;96834.00;;;;8378184;28;20200;-67
2023/10/02 17:53:20;;;;;;;28.23;10.63;;;;;18.40;96830.00;;;;8376569;28;20619;-67
2023/10/02 17:57:25;;;;;;;28.30;10.65;;;;;18.20;96838.00;;;;8378639;28;20240;-67
2023/10/02 18:01:28;;;;;;;23.15;8.85;;;;;18.00;96827.00;;;;8375927;28;20837;-68
2023/10/02 18:05:31;;;;;;;34.50;10.90;;;;;17.90;96828.00;;;;8374752;28;20200;-66
2023/10/02 18:09:35;;;;;;;25.30;10.55;;;;;17.70;96827.00;;;;8376440;28;20290;-68
2023/10/02 18:13:40;;;;;;;27.10;10.18;;;;;17.60;96827.00;;;;8376197;28;20197;-69
2023/10/02 18:17:43;;;;;;;26.73;10.32;;;;;17.40;96830.00;;;;8383206;28;20228;-69
2023/10/02 18:21:46;;;;;;;31.25;10.88;;;;;17.30;96834.00;;;;8380584;28;20196;-69
2023/10/02 18:25:54;;;;;;;26.88;10.50;;;;;17.20;96832.00;;;;8379413;28;20538;-67
2023/10/02 18:29:59;;;;;;;22.95;9.75;;;;;17.10;96831.00;;;;8380209;28;20573;-67
2023/10/02 18:34:02;;;;;;;30.10;10.90;;;;;16.90;96831.00;;;;8380346;28;20867;-68
2023/10/02 18:38:06;;;;;;;28.92;10.23;;;;;16.80;96825.00;;;;8378722;28;20220;-68
2023/10/02 18:42:09;;;;;;;24.77;9.88;;;;;16.60;96829.00;;;;8381809;28;20206;-68
2023/10/02 18:46:13;;;;;;;33.55;11.98;;;;;16.50;96824.00;;;;8374287;28;20311;-69
2023/10/02 18:50:16;;;;;;;30.38;12.25;;;;;16.40;96824.00;;;;8384122;28;20204;-68
2023/10/02 18:54:20;;;;;;;32.55;12.23;;;;;16.30;96826.00;;;;8380914;28;20208;-68
2023/10/02 18:58:24;;;;;;;27.95;10.75;;;;;16.30;96824.00;;;;8388832;28;20222;-67
2023/10/02 19:02:28;;;;;;;27.52;10.90;;;;;16.20;96832.00;;;;8381794;28;20250;-68
2023/10/02 19:06:33;;;;;;;35.13;11.68;;;;;16.20;96833.00;;;;8373964;28;20219;-68
2023/10/02 19:10:36;;;;;;;29.80;12.40;;;;;16.10;96820.00;;;;8379814;28;20231;-67
2023/10/02 19:14:39;;;;;;;27.50;11.00;;;;;16.00;96816.00;;;;8375744;28;20227;-68
2023/10/02 19:18:44;;;;;;;28.10;11.45;;;;;15.90;96813.00;;;;8372537;28;20200;-68
2023/10/02 19:22:47;;;;;;;30.40;11.63;;;;;15.90;96811.00;;;;8383193;28;20196;-67
2023/10/02 19:26:50;;;;;;;29.88;11.63;;;;;15.80;96802.00;;;;8388024;28;20235;-68
2023/10/02 19:30:53;;;;;;;28.42;11.40;;;;;15.80;96801.00;;;;8376652;28;20203;-68
2023/10/02 19:34:58;;;;;;;36.15;12.10;;;;;15.70;96794.00;;;;8383612;28;20680;-67
2023/10/02 19:39:04;;;;;;;35.25;12.60;;;;;15.70;96797.00;;;;8376672;28;20736;-68
2023/10/02 19:43:08;;;;;;;36.65;12.25;;;;;15.60;96792.00;;;;8378112;28;20239;-68
2023/10/02 19:47:11;;;;;;;27.63;11.27;;;;;15.60;96787.00;;;;8376953;28;20227;-68
2023/10/02 19:51:15;;;;;;;30.77;11.95;;;;;15.50;96787.00;;;;8377601;28;20196;-68
2023/10/02 19:55:20;;;;;;;30.15;12.80;;;;;15.50;96782.00;;;;8376370;28;20216;-68
2023/10/02 19:59:23;;;;;;;30.20;11.68;;;;;15.40;96780.00;;;;8377402;28;20196;-67
2023/10/02 20:03:28;;;;;;;33.78;12.85;;;;;15.30;96781.00;;;;8372301;28;20269;-68
2023/10/02 20:07:32;;;;;;;33.08;11.63;;;;;15.20;96772.00;;;;8377245;28;20197;-68
2023/10/02 20:11:35;;;;;;;28.33;11.30;;;;;15.20;96771.00;;;;8376674;28;20805;-69
2023/10/02 20:15:39;;;;;;;30.73;11.68;;;;;15.20;96767.00;;;;8372688;28;20254;-69
2023/10/02 20:19:45;;;;;;;36.58;12.88;;;;;15.10;96759.00;;;;8376762;28;20204;-68
2023/10/02 20:23:51;;;;;;;34.55;11.98;;;;;15.10;96756.00;;;;8376521;28;20279;-69
2023/10/02 20:27:56;;;;;;;32.67;13.35;;;;;15.00;96755.00;;;;8378723;28;20281;-68
2023/10/02 20:31:59;;;;;;;31.35;10.85;;;;;15.00;96763.00;;;;8377840;28;20235;-68